Etusivu
METAR-TAF:

METAR-TAF

Lentoasemat :

Charlottetown, Prinssi Edwardin saari, Kanada

Leveyspiiri: 46-17N, Pituuspiiri: 063-08W, korkeus merenpinnasta: 48 m

Tämänhetkinen sää

Tämä raportti tehtiin 43 minuuttia sitten, kello 05.00 UTC
Tuuli 6 kn pohjoisen/luoteesta
Lämpötila 3°C
Kosteus 100%
Ilmanpaine 1016 hPa
Näkyvyys: 24.1 km
selkeää

METAR: CYYG 250500Z 34006KT 15SM SKC 03/03 A2999 RMK SLP157

Aika: 02:43 (05:43 UTC)

Sääennuste

Tämä raportti tehtiin 6 tuntia ja 5 minuuttia sitten, kello 23.38 UTC
Ennuste voimassa 25. päivästä klo 00 UTC - 25. päivään klo 12 UTC
Tuuli 8 kn pohjoisesta/koillisesta
Näkyvyys: 10 km
Muutamia pilviä 10000 ft:n korkeudessa
Hajonneita pilviä 24000 ft:n korkeudessa
From 25. päivästä klo 0200 UTC
Tuuli 5 kn pohjoisesta/koillisesta
Näkyvyys: 10 km
Muutamia pilviä 20000 ft:n korkeudessa

TAF: CYYG 242338Z 2500/2512 03008KT P6SM FEW100 BKN240 FM250200 03005KT P6SM FEW200 RMK NXT FCST BY 250600Z

Säähavainnot ja -ennusteet yli 4000 lentoasemalta (METAR- ja TAF-raportit).

Käytössä olevat sääasemat on merkitty karttaan keltaisilla ja punaisilla pisteillä.

Aseta hiiri pisteen päälle nähdäksesi sääaseman nimen.

Klikkaa sitten nähdäksesi säähavainnot ja -ennusteet.

Kartan vaihtaminen: klikkaa mustalla rastilla varustettuja vihreitä pisteitä, niin voit zoomata sisään; viivalla varustettua vihreää pistettä, niin voit zoomata ulos tai vihreitä nuolia, niin pääset viereisille kartoille.


METAR-TAF: